createdAt,value
2022-08-17T00:00:03.712Z,9.50
2022-08-17T00:01:03.783Z,9.30
2022-08-17T00:02:05.841Z,9.20
2022-08-17T00:03:03.709Z,9.60
2022-08-17T00:04:06.879Z,9.50
2022-08-17T00:05:03.707Z,10.60
2022-08-17T00:06:03.703Z,9.40
2022-08-17T00:07:03.702Z,10.40
2022-08-17T00:08:03.714Z,8.90
2022-08-17T00:09:03.698Z,9.70
2022-08-17T00:10:03.765Z,8.30
2022-08-17T00:11:03.698Z,8.60
2022-08-17T00:12:34.934Z,8.60
2022-08-17T00:13:03.693Z,9.10
2022-08-17T00:14:03.699Z,8.80
2022-08-17T00:15:03.696Z,9.00
2022-08-17T00:16:03.693Z,9.10
2022-08-17T00:17:03.729Z,10.50
2022-08-17T00:18:03.689Z,8.50
2022-08-17T00:19:08.425Z,9.50
2022-08-17T00:20:03.685Z,8.80
2022-08-17T00:21:03.685Z,8.70
2022-08-17T00:22:32.499Z,8.70
2022-08-17T00:23:03.682Z,8.50
2022-08-17T00:24:03.682Z,9.00
2022-08-17T00:25:03.687Z,11.80
2022-08-17T00:26:03.678Z,9.10
2022-08-17T00:27:03.680Z,8.70
2022-08-17T00:28:03.676Z,9.50
2022-08-17T00:29:03.678Z,10.40
2022-08-17T00:30:03.676Z,12.50
2022-08-17T00:31:03.672Z,10.50
2022-08-17T00:33:14.350Z,9.30
2022-08-17T00:33:15.898Z,9.60
2022-08-17T00:34:03.666Z,8.80
2022-08-17T00:35:03.668Z,9.20
2022-08-17T00:36:03.669Z,9.00
2022-08-17T00:37:03.673Z,9.60
2022-08-17T00:38:03.658Z,9.50
2022-08-17T00:39:03.661Z,11.00
2022-08-17T00:40:03.744Z,11.20
2022-08-17T00:41:03.658Z,10.00
2022-08-17T00:42:03.659Z,10.30
2022-08-17T00:43:03.654Z,10.00
2022-08-17T00:44:03.660Z,10.90
2022-08-17T00:45:03.650Z,10.00
2022-08-17T00:46:03.655Z,10.10
2022-08-17T00:47:03.651Z,9.60
2022-08-17T00:48:03.652Z,9.70
2022-08-17T00:49:03.649Z,10.20
2022-08-17T00:50:03.650Z,9.20
2022-08-17T00:51:03.646Z,10.20
2022-08-17T00:52:03.653Z,9.20
2022-08-17T00:53:03.641Z,10.70
2022-08-17T00:54:03.645Z,10.40
2022-08-17T00:55:03.638Z,10.50
2022-08-17T00:56:03.642Z,10.30
2022-08-17T00:57:03.638Z,9.60
2022-08-17T00:58:03.639Z,9.90
2022-08-17T00:59:03.631Z,9.60
2022-08-17T01:00:04.047Z,9.60
2022-08-17T01:01:03.738Z,9.10
2022-08-17T01:02:03.709Z,8.80
2022-08-17T01:03:03.624Z,8.40
2022-08-17T01:04:03.637Z,8.70
2022-08-17T01:05:03.624Z,9.80
2022-08-17T01:06:03.623Z,9.40
2022-08-17T01:07:03.622Z,9.00
2022-08-17T01:08:03.620Z,8.70
2022-08-17T01:09:03.623Z,11.40
2022-08-17T01:10:03.621Z,8.50
2022-08-17T01:11:03.613Z,8.90
2022-08-17T01:12:03.619Z,9.20
2022-08-17T01:13:03.612Z,8.90
2022-08-17T01:14:03.608Z,11.40
2022-08-17T01:15:03.611Z,9.70
2022-08-17T01:16:03.610Z,10.40
2022-08-17T01:17:03.606Z,9.80
2022-08-17T01:18:03.606Z,10.00
2022-08-17T01:19:03.605Z,11.70
2022-08-17T01:20:03.597Z,10.80
2022-08-17T01:21:03.600Z,10.80
2022-08-17T01:22:03.598Z,11.50
2022-08-17T01:23:03.594Z,12.20
2022-08-17T01:24:03.598Z,13.80
2022-08-17T01:25:03.591Z,13.10
2022-08-17T01:26:03.592Z,14.70
2022-08-17T01:27:03.593Z,13.30
2022-08-17T01:28:03.589Z,10.00
2022-08-17T01:29:03.583Z,9.40
2022-08-17T01:30:03.585Z,9.80
2022-08-17T01:31:03.583Z,9.60
2022-08-17T01:32:03.592Z,9.70
2022-08-17T01:33:03.578Z,9.80
2022-08-17T01:34:03.575Z,11.00
2022-08-17T01:35:03.576Z,9.90
2022-08-17T01:36:03.588Z,10.60
2022-08-17T01:37:03.573Z,12.40
2022-08-17T01:38:03.572Z,9.60
2022-08-17T01:39:03.565Z,10.70
2022-08-17T01:40:03.609Z,10.40
2022-08-17T01:41:03.564Z,11.70
2022-08-17T01:42:03.562Z,12.70
2022-08-17T01:43:03.557Z,14.10
2022-08-17T01:44:03.557Z,12.60
2022-08-17T01:45:03.557Z,13.50
2022-08-17T01:46:04.167Z,13.30
2022-08-17T01:47:03.554Z,13.30
2022-08-17T01:48:03.553Z,12.80
2022-08-17T01:49:03.552Z,11.60
2022-08-17T01:50:03.546Z,12.70
2022-08-17T01:51:03.544Z,10.60
2022-08-17T01:52:03.544Z,10.50
2022-08-17T01:53:03.543Z,10.40
2022-08-17T01:54:03.537Z,12.60
2022-08-17T01:55:03.539Z,13.10
2022-08-17T01:56:03.532Z,10.80
2022-08-17T01:57:03.528Z,11.00
2022-08-17T01:58:03.526Z,13.10
2022-08-17T01:59:03.529Z,10.40
2022-08-17T02:00:03.528Z,9.70
2022-08-17T02:01:03.549Z,9.00
2022-08-17T02:02:03.520Z,8.90
2022-08-17T02:03:03.520Z,10.50
2022-08-17T02:04:03.517Z,9.60
2022-08-17T02:05:03.512Z,10.10
2022-08-17T02:06:03.512Z,9.20
2022-08-17T02:07:03.513Z,11.00
2022-08-17T02:08:03.509Z,9.10
2022-08-17T02:09:03.963Z,9.60
2022-08-17T02:10:03.506Z,9.30
2022-08-17T02:11:03.505Z,9.60
2022-08-17T02:12:47.444Z,9.60
2022-08-17T02:13:03.509Z,10.30
2022-08-17T02:14:04.160Z,11.40
2022-08-17T02:15:03.499Z,10.10
2022-08-17T02:16:03.495Z,10.10
2022-08-17T02:17:03.492Z,10.40
2022-08-17T02:18:03.489Z,11.40
2022-08-17T02:19:03.489Z,9.80
2022-08-17T02:20:03.521Z,10.00
2022-08-17T02:21:03.487Z,11.00
2022-08-17T02:22:03.493Z,10.30
2022-08-17T02:23:03.479Z,11.20
2022-08-17T02:24:03.478Z,11.90
2022-08-17T02:25:03.474Z,10.40
2022-08-17T02:26:03.476Z,10.20
2022-08-17T02:27:03.470Z,10.30
2022-08-17T02:28:03.476Z,10.20
2022-08-17T02:29:03.463Z,10.60
2022-08-17T02:30:03.467Z,10.50
2022-08-17T02:31:03.472Z,10.50
2022-08-17T02:32:03.463Z,10.30
2022-08-17T02:33:04.267Z,10.30
2022-08-17T02:34:05.178Z,10.40
2022-08-17T02:35:03.457Z,10.00
2022-08-17T02:36:03.458Z,10.20
2022-08-17T02:37:03.448Z,10.60
2022-08-17T02:38:03.445Z,10.60
2022-08-17T02:39:03.457Z,10.10
2022-08-17T02:40:03.503Z,10.10
2022-08-17T02:41:03.445Z,10.20
2022-08-17T02:42:03.441Z,11.70
2022-08-17T02:43:03.439Z,10.20
2022-08-17T02:44:03.434Z,10.50
2022-08-17T02:45:03.435Z,10.40
2022-08-17T02:46:03.427Z,10.90
2022-08-17T02:47:03.426Z,10.70
2022-08-17T02:48:03.425Z,10.60
2022-08-17T02:49:03.420Z,12.00
2022-08-17T02:50:03.419Z,12.90
2022-08-17T02:51:03.417Z,13.20
2022-08-17T02:52:03.422Z,13.80
2022-08-17T02:53:04.785Z,14.20
2022-08-17T02:54:40.591Z,15.00
2022-08-17T02:55:03.408Z,14.70
2022-08-17T02:56:03.405Z,15.00
2022-08-17T02:57:03.400Z,15.20
2022-08-17T02:58:03.400Z,14.90
2022-08-17T02:59:03.413Z,14.50
2022-08-17T03:00:03.394Z,15.10
2022-08-17T03:01:03.457Z,15.40
2022-08-17T03:02:03.450Z,14.70
2022-08-17T03:03:03.388Z,14.70
2022-08-17T03:04:03.384Z,15.10
2022-08-17T03:05:03.383Z,13.70
2022-08-17T03:06:03.380Z,12.40
2022-08-17T03:07:03.377Z,11.80
2022-08-17T03:08:03.375Z,10.20
2022-08-17T03:09:03.376Z,10.60
2022-08-17T03:10:03.369Z,10.70
2022-08-17T03:11:03.368Z,11.00
2022-08-17T03:12:03.364Z,10.50
2022-08-17T03:13:03.363Z,10.40
2022-08-17T03:14:03.360Z,10.20
2022-08-17T03:15:03.359Z,10.40
2022-08-17T03:16:03.355Z,10.40
2022-08-17T03:17:03.357Z,11.80
2022-08-17T03:18:03.352Z,14.30
2022-08-17T03:19:03.347Z,13.80
2022-08-17T03:20:03.356Z,14.40
2022-08-17T03:21:03.340Z,14.00
2022-08-17T03:22:08.794Z,14.90
2022-08-17T03:23:03.387Z,14.00
2022-08-17T03:24:05.899Z,12.70
2022-08-17T03:25:03.333Z,11.90
2022-08-17T03:26:03.329Z,11.70
2022-08-17T03:27:03.328Z,10.50
2022-08-17T03:28:03.327Z,11.10
2022-08-17T03:29:03.321Z,11.50
2022-08-17T03:30:03.329Z,12.60
2022-08-17T03:31:03.316Z,13.50
2022-08-17T03:32:03.315Z,13.10
2022-08-17T03:33:03.315Z,13.10
2022-08-17T03:34:03.306Z,12.20
2022-08-17T03:35:03.332Z,13.50
2022-08-17T03:36:03.305Z,13.50
2022-08-17T03:37:03.307Z,11.20
2022-08-17T03:38:03.299Z,10.20
2022-08-17T03:39:03.300Z,9.90
2022-08-17T03:40:03.321Z,10.40
2022-08-17T03:41:03.289Z,10.10
2022-08-17T03:42:03.289Z,11.10
2022-08-17T03:43:03.287Z,11.60
2022-08-17T03:44:03.285Z,10.80
2022-08-17T03:45:03.282Z,10.60
2022-08-17T03:46:03.283Z,11.00
2022-08-17T03:47:03.279Z,10.90
2022-08-17T03:48:03.274Z,10.60
2022-08-17T03:49:03.269Z,10.90
2022-08-17T03:50:03.269Z,10.70
2022-08-17T03:51:03.267Z,11.10
2022-08-17T03:52:03.263Z,11.10
2022-08-17T03:53:03.261Z,11.20
2022-08-17T03:54:03.260Z,10.60
2022-08-17T03:55:03.258Z,11.00
2022-08-17T03:56:03.259Z,11.70
2022-08-17T03:57:03.257Z,12.30
2022-08-17T03:58:03.250Z,11.20
2022-08-17T03:59:03.252Z,12.20
2022-08-17T04:00:03.245Z,12.90
2022-08-17T04:01:03.288Z,10.70
2022-08-17T04:02:03.241Z,10.40
2022-08-17T04:03:03.239Z,11.00
2022-08-17T04:04:03.243Z,10.50
2022-08-17T04:05:03.234Z,10.40
2022-08-17T04:06:03.243Z,11.20
2022-08-17T04:07:03.230Z,10.80
2022-08-17T04:08:03.228Z,11.00
2022-08-17T04:09:03.226Z,12.60
2022-08-17T04:10:03.225Z,11.20
2022-08-17T04:11:03.219Z,10.60
2022-08-17T04:12:04.889Z,10.90
2022-08-17T04:13:03.212Z,12.40
2022-08-17T04:14:03.211Z,10.80
2022-08-17T04:15:03.210Z,10.80
2022-08-17T04:16:03.204Z,10.60
2022-08-17T04:17:03.222Z,10.20
2022-08-17T04:18:03.207Z,11.70
2022-08-17T04:19:03.202Z,11.10
2022-08-17T04:20:03.204Z,10.90
2022-08-17T04:21:03.194Z,11.30
2022-08-17T04:22:03.200Z,10.80
2022-08-17T04:23:03.190Z,10.90
2022-08-17T04:24:03.189Z,11.70
2022-08-17T04:25:03.186Z,12.70
2022-08-17T04:26:03.194Z,12.50
2022-08-17T04:27:03.183Z,13.60
2022-08-17T04:28:03.183Z,13.40
2022-08-17T04:29:03.175Z,14.10
2022-08-17T04:30:03.174Z,13.30
2022-08-17T04:31:03.174Z,12.70
2022-08-17T04:32:03.175Z,13.30
2022-08-17T04:33:06.195Z,14.10
2022-08-17T04:34:03.165Z,12.80
2022-08-17T04:35:03.161Z,12.80
2022-08-17T04:36:03.164Z,12.10
2022-08-17T04:37:03.160Z,10.60
2022-08-17T04:38:03.168Z,11.60
2022-08-17T04:39:03.154Z,10.50
2022-08-17T04:40:04.381Z,11.00
2022-08-17T04:41:03.149Z,11.30
2022-08-17T04:42:03.152Z,10.20
2022-08-17T04:43:03.150Z,12.00
2022-08-17T04:44:03.145Z,11.70
2022-08-17T04:45:03.141Z,10.00
2022-08-17T04:46:03.143Z,10.30
2022-08-17T04:47:03.141Z,9.90
2022-08-17T04:48:03.135Z,9.90
2022-08-17T04:49:03.133Z,10.10
2022-08-17T04:50:03.208Z,10.20
2022-08-17T04:51:03.129Z,9.80
2022-08-17T04:52:04.655Z,10.10
2022-08-17T04:53:03.125Z,12.00
2022-08-17T04:54:03.125Z,10.30
2022-08-17T04:55:03.123Z,11.00
2022-08-17T04:56:03.119Z,9.80
2022-08-17T04:57:03.113Z,9.90
2022-08-17T04:58:03.118Z,10.70
2022-08-17T04:59:03.112Z,10.20
2022-08-17T05:00:03.208Z,10.40
2022-08-17T05:01:03.184Z,12.30
2022-08-17T05:02:03.106Z,11.10
2022-08-17T05:03:03.103Z,11.90
2022-08-17T05:04:20.861Z,13.60
2022-08-17T05:05:03.100Z,13.60
2022-08-17T05:06:03.097Z,13.70
2022-08-17T05:07:03.097Z,13.90
2022-08-17T05:08:03.094Z,13.60
2022-08-17T05:09:03.093Z,13.10
2022-08-17T05:10:03.091Z,12.90
2022-08-17T05:11:03.089Z,12.90
2022-08-17T05:12:03.087Z,13.40
2022-08-17T05:13:03.086Z,13.50
2022-08-17T05:14:03.086Z,12.20
2022-08-17T05:15:03.084Z,13.10
2022-08-17T05:16:03.082Z,12.90
2022-08-17T05:17:07.244Z,13.80
2022-08-17T05:18:03.083Z,13.90
2022-08-17T05:19:03.082Z,14.80
2022-08-17T05:20:03.077Z,14.40
2022-08-17T05:21:03.079Z,15.30
2022-08-17T05:22:03.079Z,14.90
2022-08-17T05:23:03.078Z,16.00
2022-08-17T05:24:03.071Z,14.70
2022-08-17T05:25:03.075Z,13.30
2022-08-17T05:26:03.073Z,11.00
2022-08-17T05:27:06.667Z,13.50
2022-08-17T05:28:03.076Z,12.60
2022-08-17T05:29:03.133Z,13.60
2022-08-17T05:30:03.073Z,11.20
2022-08-17T05:31:03.071Z,9.80
2022-08-17T05:32:03.073Z,10.30
2022-08-17T05:33:03.071Z,11.80
2022-08-17T05:34:03.072Z,12.20
2022-08-17T05:35:03.072Z,12.10
2022-08-17T05:36:03.075Z,11.10
2022-08-17T05:37:03.080Z,11.90
2022-08-17T05:38:03.077Z,13.80
2022-08-17T05:39:03.075Z,15.50
2022-08-17T05:40:03.187Z,15.10
2022-08-17T05:41:03.073Z,15.60
2022-08-17T05:42:03.075Z,16.80
2022-08-17T05:43:03.077Z,14.10
2022-08-17T05:44:05.408Z,14.00
2022-08-17T05:45:03.100Z,13.50
2022-08-17T05:46:03.073Z,13.40
2022-08-17T05:47:03.077Z,12.00
2022-08-17T05:48:03.078Z,13.80
2022-08-17T05:49:03.078Z,13.10
2022-08-17T05:50:03.079Z,13.80
2022-08-17T05:51:03.078Z,15.50
2022-08-17T05:52:03.078Z,17.10
2022-08-17T05:53:03.088Z,14.90
2022-08-17T05:54:03.082Z,13.20
2022-08-17T05:55:03.085Z,34.90
2022-08-17T05:56:03.087Z,14.70
2022-08-17T05:57:03.087Z,14.90
2022-08-17T05:58:03.088Z,15.60
2022-08-17T05:59:03.088Z,15.70
2022-08-17T06:00:03.093Z,17.40
2022-08-17T06:01:03.106Z,19.30
2022-08-17T06:02:03.092Z,20.10
2022-08-17T06:03:03.094Z,20.80
2022-08-17T06:04:03.095Z,25.40
2022-08-17T06:05:03.107Z,20.80
2022-08-17T06:06:03.138Z,18.30
2022-08-17T06:07:03.100Z,17.90
2022-08-17T06:08:03.106Z,16.10
2022-08-17T06:09:03.108Z,19.00
2022-08-17T06:10:03.108Z,24.40
2022-08-17T06:11:03.111Z,25.60
2022-08-17T06:12:03.109Z,24.60
2022-08-17T06:13:03.113Z,19.10
2022-08-17T06:14:03.112Z,21.30
2022-08-17T06:15:03.120Z,18.80
2022-08-17T06:16:03.129Z,21.40
2022-08-17T06:17:03.120Z,15.00
2022-08-17T06:18:03.138Z,15.50
2022-08-17T06:19:03.132Z,20.40
2022-08-17T06:20:03.134Z,20.20
2022-08-17T06:21:03.133Z,19.10
2022-08-17T06:22:03.136Z,24.40
2022-08-17T06:23:03.138Z,24.90
2022-08-17T06:24:03.139Z,20.80
2022-08-17T06:25:03.142Z,21.10
2022-08-17T06:26:03.147Z,20.20
2022-08-17T06:27:03.149Z,17.90
2022-08-17T06:28:03.176Z,19.90
2022-08-17T06:29:03.159Z,22.10
2022-08-17T06:30:03.159Z,20.70
2022-08-17T06:31:03.162Z,21.10
2022-08-17T06:32:03.167Z,21.10
2022-08-17T06:33:03.166Z,20.90
2022-08-17T06:34:03.174Z,20.30
2022-08-17T06:35:03.180Z,20.10
2022-08-17T06:36:06.196Z,20.30
2022-08-17T06:37:03.768Z,23.20
2022-08-17T06:38:03.187Z,20.60
2022-08-17T06:39:03.194Z,21.10
2022-08-17T06:40:03.257Z,21.30
2022-08-17T06:41:03.201Z,20.20
2022-08-17T06:42:03.206Z,21.80
2022-08-17T06:43:06.412Z,20.70
2022-08-17T06:44:03.222Z,20.90
2022-08-17T06:45:03.219Z,18.80
2022-08-17T06:46:04.116Z,19.00
2022-08-17T06:47:03.237Z,19.20
2022-08-17T06:48:03.233Z,19.30
2022-08-17T06:49:03.238Z,28.50
2022-08-17T06:50:03.259Z,18.80
2022-08-17T06:51:03.250Z,18.20
2022-08-17T06:52:03.255Z,18.20
2022-08-17T06:53:03.259Z,17.10
2022-08-17T06:54:03.265Z,16.30
2022-08-17T06:55:03.268Z,16.90
2022-08-17T06:56:03.278Z,14.90
2022-08-17T06:57:03.279Z,13.20
2022-08-17T06:58:05.891Z,15.00
2022-08-17T06:59:03.294Z,12.90
2022-08-17T07:00:03.296Z,12.70
2022-08-17T07:01:03.361Z,12.00
2022-08-17T07:02:03.307Z,12.40
2022-08-17T07:03:03.383Z,11.00
2022-08-17T07:04:06.759Z,10.30
2022-08-17T07:05:03.323Z,10.70
2022-08-17T07:06:03.329Z,9.60
2022-08-17T07:07:03.337Z,10.30
2022-08-17T07:08:03.343Z,9.50
2022-08-17T07:09:03.346Z,9.60
2022-08-17T07:10:03.353Z,9.20
2022-08-17T07:11:03.359Z,9.10
2022-08-17T07:12:03.365Z,11.10
2022-08-17T07:13:03.384Z,8.00
2022-08-17T07:14:03.391Z,9.30
2022-08-17T07:15:03.400Z,9.40
2022-08-17T07:16:03.402Z,7.70
2022-08-17T07:17:03.408Z,9.10
2022-08-17T07:18:03.544Z,7.50
2022-08-17T07:19:03.408Z,8.00
2022-08-17T07:20:03.418Z,7.30
2022-08-17T07:21:03.423Z,7.90
2022-08-17T07:22:03.428Z,6.90
2022-08-17T07:23:03.434Z,6.70
2022-08-17T07:24:03.439Z,6.70
2022-08-17T07:25:03.447Z,6.40
2022-08-17T07:26:03.455Z,7.90
2022-08-17T07:27:03.463Z,7.40
2022-08-17T07:28:05.298Z,6.00
2022-08-17T07:29:03.473Z,7.60
2022-08-17T07:30:06.867Z,6.20
2022-08-17T07:31:03.488Z,7.10
2022-08-17T07:32:03.496Z,7.80
2022-08-17T07:33:03.501Z,6.90
2022-08-17T07:34:03.512Z,10.10
2022-08-17T07:35:03.516Z,7.40
2022-08-17T07:36:03.525Z,7.50
2022-08-17T07:37:03.532Z,9.00
2022-08-17T07:38:03.538Z,10.50
2022-08-17T07:39:03.545Z,7.00
2022-08-17T07:40:15.248Z,8.30
2022-08-17T07:41:03.677Z,6.90
2022-08-17T07:42:03.564Z,7.80
2022-08-17T07:43:04.952Z,9.10
2022-08-17T07:44:03.595Z,11.50
2022-08-17T07:45:03.598Z,6.90
2022-08-17T07:46:03.597Z,7.50
2022-08-17T07:47:03.599Z,6.90
2022-08-17T07:48:03.611Z,6.80
2022-08-17T07:49:03.650Z,8.10
2022-08-17T07:50:03.622Z,7.80
2022-08-17T07:51:03.628Z,8.60
2022-08-17T07:52:47.388Z,8.20
2022-08-17T07:53:03.649Z,8.20
2022-08-17T07:54:14.029Z,8.70
2022-08-17T07:55:03.660Z,7.40
2022-08-17T07:56:03.667Z,7.60
2022-08-17T07:57:03.672Z,7.50
2022-08-17T07:58:03.689Z,9.40
2022-08-17T07:59:03.689Z,8.60
2022-08-17T08:00:03.702Z,6.30
2022-08-17T08:01:03.704Z,5.60
2022-08-17T08:02:03.810Z,7.70
2022-08-17T08:03:03.709Z,4.80
2022-08-17T08:04:03.721Z,7.50
2022-08-17T08:05:03.727Z,9.40
2022-08-17T08:06:03.736Z,6.30
2022-08-17T08:07:03.741Z,5.10
2022-08-17T08:08:03.751Z,6.50
2022-08-17T08:09:03.752Z,5.80
2022-08-17T08:10:03.767Z,6.60
2022-08-17T08:11:03.766Z,5.00
2022-08-17T08:12:03.772Z,6.90
2022-08-17T08:13:03.778Z,7.90
2022-08-17T08:14:03.782Z,8.20
2022-08-17T08:15:03.787Z,6.30
2022-08-17T08:16:03.794Z,4.90
2022-08-17T08:17:03.802Z,9.00
2022-08-17T08:18:03.803Z,8.10
2022-08-17T08:19:03.809Z,8.70
2022-08-17T08:20:19.723Z,7.40
2022-08-17T08:21:03.819Z,8.70
2022-08-17T08:22:03.829Z,5.90
2022-08-17T08:23:03.830Z,5.30
2022-08-17T08:24:03.836Z,7.80
2022-08-17T08:25:03.865Z,7.20
2022-08-17T08:26:03.848Z,4.70
2022-08-17T08:27:03.848Z,7.30
2022-08-17T08:28:03.856Z,9.90
2022-08-17T08:29:03.858Z,6.40
2022-08-17T08:30:03.866Z,5.90
2022-08-17T08:31:03.867Z,6.90
2022-08-17T08:32:03.893Z,7.50
2022-08-17T08:33:03.879Z,12.00
2022-08-17T08:34:03.883Z,9.60
2022-08-17T08:35:04.053Z,6.10
2022-08-17T08:36:03.890Z,7.10
2022-08-17T08:37:16.595Z,8.80
2022-08-17T08:38:03.898Z,7.40
2022-08-17T08:39:03.904Z,9.10
2022-08-17T08:40:03.997Z,3.80
2022-08-17T08:41:03.926Z,5.20
2022-08-17T08:42:03.919Z,5.90
2022-08-17T08:43:03.928Z,5.00
2022-08-17T08:44:03.931Z,5.80
2022-08-17T08:45:05.015Z,4.90
2022-08-17T08:46:03.935Z,5.10
2022-08-17T08:47:03.937Z,4.90
2022-08-17T08:48:05.651Z,5.00
2022-08-17T08:49:11.901Z,5.60
2022-08-17T08:50:05.381Z,6.00
2022-08-17T08:51:03.953Z,6.00
2022-08-17T08:52:03.954Z,7.50
2022-08-17T08:53:03.957Z,7.10
2022-08-17T08:54:03.968Z,6.10
2022-08-17T08:55:03.969Z,7.20
2022-08-17T08:56:03.972Z,4.90
2022-08-17T08:58:03.982Z,7.20
2022-08-17T08:59:03.983Z,5.30
2022-08-17T09:00:03.985Z,6.80
2022-08-17T09:01:04.020Z,5.80
2022-08-17T09:02:03.997Z,7.10
2022-08-17T09:03:03.996Z,6.50
2022-08-17T09:04:21.433Z,6.10
2022-08-17T09:05:17.050Z,7.30
2022-08-17T09:06:04.011Z,6.20
2022-08-17T09:07:04.014Z,8.80
2022-08-17T09:08:04.016Z,5.50
2022-08-17T09:09:04.019Z,5.90
2022-08-17T09:10:04.032Z,4.50
2022-08-17T09:11:04.027Z,6.00
2022-08-17T09:12:04.397Z,4.80
2022-08-17T09:13:09.905Z,6.90
2022-08-17T09:14:04.039Z,5.70
2022-08-17T09:15:04.042Z,6.80
2022-08-17T09:16:04.048Z,8.70
2022-08-17T09:17:04.050Z,24.00
2022-08-17T09:19:03.544Z,7.90
2022-08-17T09:19:04.944Z,18.70
2022-08-17T09:20:04.062Z,8.50
2022-08-17T09:21:04.074Z,9.00
2022-08-17T09:22:04.073Z,6.50
2022-08-17T09:23:04.083Z,6.90
2022-08-17T09:24:04.077Z,7.60
2022-08-17T09:25:04.080Z,5.60
2022-08-17T09:26:04.083Z,7.10
2022-08-17T09:27:04.085Z,6.30
2022-08-17T09:28:04.089Z,8.80
2022-08-17T09:29:04.621Z,7.90
2022-08-17T09:30:04.099Z,6.70
2022-08-17T09:31:04.102Z,7.30
2022-08-17T09:32:04.103Z,7.00
2022-08-17T09:33:04.105Z,7.60
2022-08-17T09:34:04.113Z,5.50
2022-08-17T09:35:04.116Z,5.80
2022-08-17T09:36:04.118Z,6.70
2022-08-17T09:37:04.120Z,4.50
2022-08-17T09:38:04.125Z,5.50
2022-08-17T09:39:04.130Z,5.10
2022-08-17T09:40:04.242Z,5.10
2022-08-17T09:41:04.137Z,4.10
2022-08-17T09:42:04.142Z,5.20
2022-08-17T09:43:04.142Z,4.10
2022-08-17T09:44:04.166Z,6.70
2022-08-17T09:45:04.149Z,5.40
2022-08-17T09:46:04.167Z,6.60
2022-08-17T09:47:04.163Z,6.90
2022-08-17T09:48:04.163Z,6.00
2022-08-17T09:49:04.162Z,5.90
2022-08-17T09:50:04.172Z,5.30
2022-08-17T09:51:06.599Z,7.70
2022-08-17T09:52:04.179Z,5.20
2022-08-17T09:53:04.186Z,5.10
2022-08-17T09:54:34.907Z,6.20
2022-08-17T09:55:04.190Z,5.60
2022-08-17T09:56:04.189Z,5.60
2022-08-17T09:57:27.940Z,7.40
2022-08-17T09:58:04.204Z,5.60
2022-08-17T09:59:04.214Z,4.60
2022-08-17T10:00:04.215Z,7.00
2022-08-17T10:01:04.262Z,5.70
2022-08-17T10:02:04.216Z,6.20
2022-08-17T10:03:04.222Z,7.00
2022-08-17T10:04:04.224Z,6.30
2022-08-17T10:05:04.229Z,6.50
2022-08-17T10:06:06.479Z,5.30
2022-08-17T10:07:04.233Z,3.20
2022-08-17T10:08:04.236Z,6.00
2022-08-17T10:09:04.244Z,5.60
2022-08-17T10:10:04.246Z,4.90
2022-08-17T10:11:04.250Z,4.20
2022-08-17T10:12:04.254Z,4.20
2022-08-17T10:13:04.258Z,4.30
2022-08-17T10:14:36.032Z,6.30
2022-08-17T10:15:08.159Z,7.70
2022-08-17T10:16:04.269Z,5.50
2022-08-17T10:17:04.275Z,4.30
2022-08-17T10:18:04.275Z,4.70
2022-08-17T10:19:04.311Z,5.20
2022-08-17T10:20:04.288Z,5.90
2022-08-17T10:21:04.293Z,5.60
2022-08-17T10:22:33.010Z,3.60
2022-08-17T10:23:04.304Z,5.20
2022-08-17T10:24:04.304Z,5.60
2022-08-17T10:25:23.153Z,7.30
2022-08-17T10:26:04.311Z,4.20
2022-08-17T10:27:04.320Z,4.50
2022-08-17T10:28:04.319Z,5.20
2022-08-17T10:29:04.323Z,5.10
2022-08-17T10:30:04.330Z,7.10
2022-08-17T10:31:34.728Z,7.00
2022-08-17T10:32:04.338Z,3.80
2022-08-17T10:33:04.341Z,5.80
2022-08-17T10:34:04.346Z,4.90
2022-08-17T10:35:04.345Z,4.70
2022-08-17T10:36:08.742Z,5.00
2022-08-17T10:37:04.357Z,5.30
2022-08-17T10:38:04.361Z,3.80
2022-08-17T10:39:04.368Z,4.10
2022-08-17T10:40:04.438Z,5.80
2022-08-17T10:41:04.373Z,5.50
2022-08-17T10:42:04.379Z,4.00
2022-08-17T10:43:04.383Z,5.60
2022-08-17T10:44:40.851Z,2.80
2022-08-17T10:45:04.390Z,3.70
2022-08-17T10:46:10.624Z,5.10
2022-08-17T10:47:04.401Z,3.10
2022-08-17T10:48:06.518Z,4.90
2022-08-17T10:49:04.406Z,4.20
2022-08-17T10:50:04.411Z,3.90
2022-08-17T10:51:04.417Z,5.00
2022-08-17T10:52:04.421Z,4.10
2022-08-17T10:53:04.424Z,4.10
2022-08-17T10:54:04.428Z,4.60
2022-08-17T10:55:04.434Z,4.90
2022-08-17T10:56:04.445Z,5.10
2022-08-17T10:57:04.439Z,4.80
2022-08-17T10:58:04.444Z,6.20
2022-08-17T10:59:04.448Z,5.20
2022-08-17T11:00:04.454Z,5.40
2022-08-17T11:01:04.495Z,4.20
2022-08-17T11:02:04.468Z,5.70
2022-08-17T11:03:04.464Z,5.10
2022-08-17T11:04:04.471Z,3.80
2022-08-17T11:05:04.473Z,4.60
2022-08-17T11:06:04.476Z,4.60
2022-08-17T11:07:04.478Z,6.10
2022-08-17T11:08:04.487Z,5.60
2022-08-17T11:09:04.495Z,5.80
2022-08-17T11:10:04.496Z,3.50
2022-08-17T11:11:04.496Z,4.00
2022-08-17T11:12:04.504Z,6.30
2022-08-17T11:13:04.505Z,4.20
2022-08-17T11:14:04.509Z,5.30
2022-08-17T11:15:04.515Z,3.80
2022-08-17T11:16:08.232Z,4.50
2022-08-17T11:17:04.522Z,4.80
2022-08-17T11:18:04.527Z,5.30
2022-08-17T11:19:04.534Z,3.30
2022-08-17T11:20:04.536Z,4.90
2022-08-17T11:21:04.538Z,3.10
2022-08-17T11:22:04.544Z,4.50
2022-08-17T11:23:04.547Z,4.10
2022-08-17T11:24:04.598Z,4.80
2022-08-17T11:25:04.559Z,3.70
2022-08-17T11:26:04.563Z,5.50
2022-08-17T11:27:04.570Z,5.40
2022-08-17T11:28:04.571Z,4.10
2022-08-17T11:29:04.574Z,5.10
2022-08-17T11:30:04.579Z,4.70
2022-08-17T11:31:04.584Z,3.90
2022-08-17T11:32:04.598Z,5.50
2022-08-17T11:33:04.590Z,4.30
2022-08-17T11:34:04.596Z,3.90
2022-08-17T11:35:04.607Z,4.30
2022-08-17T11:36:04.605Z,6.10
2022-08-17T11:37:04.605Z,6.10
2022-08-17T11:38:04.612Z,3.50
2022-08-17T11:39:04.620Z,6.50
2022-08-17T11:40:04.688Z,4.80
2022-08-17T11:41:04.623Z,3.90
2022-08-17T11:42:04.632Z,5.70
2022-08-17T11:43:04.637Z,3.60
2022-08-17T11:44:04.640Z,7.00
2022-08-17T11:45:04.642Z,7.00
2022-08-17T11:46:04.649Z,4.00
2022-08-17T11:47:04.652Z,4.80
2022-08-17T11:48:31.093Z,4.60
2022-08-17T11:49:04.662Z,5.40
2022-08-17T11:50:04.669Z,6.20
2022-08-17T11:51:04.668Z,5.50
2022-08-17T11:52:04.673Z,3.60
2022-08-17T11:53:04.677Z,4.40
2022-08-17T11:54:31.174Z,6.50
2022-08-17T11:55:31.839Z,4.80
2022-08-17T11:56:04.692Z,3.70
2022-08-17T11:57:04.695Z,4.30
2022-08-17T11:58:04.701Z,6.10
2022-08-17T11:59:04.705Z,5.90
2022-08-17T12:00:04.709Z,5.20
2022-08-17T12:01:06.036Z,7.40
2022-08-17T12:02:04.718Z,5.00
2022-08-17T12:03:04.753Z,4.70
2022-08-17T12:04:04.765Z,3.40
2022-08-17T12:05:04.730Z,7.00
2022-08-17T12:06:04.735Z,5.20
2022-08-17T12:07:04.738Z,4.20
2022-08-17T12:08:04.744Z,4.70
2022-08-17T12:09:04.752Z,5.00
2022-08-17T12:10:04.756Z,5.40
2022-08-17T12:11:04.756Z,4.80
2022-08-17T12:12:13.759Z,5.00
2022-08-17T12:13:04.766Z,5.50
2022-08-17T12:14:04.769Z,7.30
2022-08-17T12:15:12.405Z,5.80
2022-08-17T12:16:04.782Z,4.30
2022-08-17T12:17:04.780Z,5.00
2022-08-17T12:18:04.790Z,3.50
2022-08-17T12:19:04.804Z,5.10
2022-08-17T12:20:04.801Z,7.00
2022-08-17T12:21:04.803Z,3.80
2022-08-17T12:22:04.809Z,4.00
2022-08-17T12:23:04.824Z,6.20
2022-08-17T12:24:04.817Z,4.30
2022-08-17T12:25:04.822Z,4.50
2022-08-17T12:26:04.831Z,3.80
2022-08-17T12:27:04.838Z,7.10
2022-08-17T12:28:07.435Z,4.30
2022-08-17T12:29:05.140Z,5.20
2022-08-17T12:30:04.849Z,4.90
2022-08-17T12:31:04.852Z,4.40
2022-08-17T12:32:04.859Z,4.70
2022-08-17T12:33:04.863Z,4.30
2022-08-17T12:34:04.872Z,6.00
2022-08-17T12:35:04.876Z,5.40
2022-08-17T12:36:04.883Z,6.20
2022-08-17T12:37:04.884Z,5.40
2022-08-17T12:38:04.893Z,5.30
2022-08-17T12:39:14.228Z,4.00
2022-08-17T12:40:05.009Z,6.30
2022-08-17T12:41:04.929Z,5.00
2022-08-17T12:42:04.914Z,6.40
2022-08-17T12:43:04.919Z,5.10
2022-08-17T12:44:04.933Z,4.90
2022-08-17T12:45:04.926Z,6.70
2022-08-17T12:46:13.486Z,5.30
2022-08-17T12:47:04.938Z,4.90
2022-08-17T12:48:04.944Z,5.20
2022-08-17T12:49:04.949Z,4.50
2022-08-17T12:50:05.013Z,3.60
2022-08-17T12:51:04.959Z,4.90
2022-08-17T12:52:04.967Z,4.80
2022-08-17T12:53:04.969Z,5.70
2022-08-17T12:54:04.987Z,3.60
2022-08-17T12:55:04.983Z,5.00
2022-08-17T12:56:04.991Z,5.20
2022-08-17T12:57:04.991Z,6.40
2022-08-17T12:58:04.996Z,4.10
2022-08-17T12:59:05.002Z,5.60
2022-08-17T13:00:05.039Z,4.50
2022-08-17T13:01:05.013Z,4.30
2022-08-17T13:02:05.060Z,5.30
2022-08-17T13:03:05.024Z,4.80
2022-08-17T13:04:05.028Z,6.50
2022-08-17T13:05:05.034Z,4.00
2022-08-17T13:06:05.042Z,4.50
2022-08-17T13:07:05.045Z,5.40